sensor_id;sensor_type;location;lat;lon;timestamp;P1;durP1;ratioP1;P2;durP2;ratioP2
37151;SDS011;23046;50.112;8.952;2023-09-19T00:00:01;3.30;;;0.85;;
37151;SDS011;23046;50.112;8.952;2023-09-19T00:00:11;3.13;;;0.82;;
37151;SDS011;23046;50.112;8.952;2023-09-19T00:00:23;2.72;;;0.73;;
37151;SDS011;23046;50.112;8.952;2023-09-19T00:00:34;1.90;;;0.70;;
37151;SDS011;23046;50.112;8.952;2023-09-19T00:00:44;1.90;;;0.60;;
37151;SDS011;23046;50.112;8.952;2023-09-19T00:00:57;2.00;;;0.60;;
37151;SDS011;23046;50.112;8.952;2023-09-19T00:01:08;1.40;;;0.55;;
37151;SDS011;23046;50.112;8.952;2023-09-19T00:01:18;1.50;;;0.60;;
37151;SDS011;23046;50.112;8.952;2023-09-19T00:01:30;1.08;;;0.60;;
37151;SDS011;23046;50.112;8.952;2023-09-19T00:01:40;1.23;;;0.50;;
37151;SDS011;23046;50.112;8.952;2023-09-19T00:01:51;1.30;;;0.60;;
37151;SDS011;23046;50.112;8.952;2023-09-19T00:02:02;1.00;;;0.57;;
37151;SDS011;23046;50.112;8.952;2023-09-19T00:02:16;1.70;;;0.55;;
37151;SDS011;23046;50.112;8.952;2023-09-19T00:02:27;1.58;;;0.50;;
37151;SDS011;23046;50.112;8.952;2023-09-19T00:02:37;1.42;;;0.50;;
37151;SDS011;23046;50.112;8.952;2023-09-19T00:02:52;0.70;;;0.60;;
37151;SDS011;23046;50.112;8.952;2023-09-19T00:03:03;1.10;;;0.70;;
37151;SDS011;23046;50.112;8.952;2023-09-19T00:03:14;1.70;;;0.70;;
37151;SDS011;23046;50.112;8.952;2023-09-19T00:03:24;1.57;;;0.67;;
37151;SDS011;23046;50.112;8.952;2023-09-19T00:03:38;0.75;;;0.57;;
37151;SDS011;23046;50.112;8.952;2023-09-19T00:03:48;2.17;;;0.60;;
37151;SDS011;23046;50.112;8.952;2023-09-19T00:03:59;2.60;;;0.60;;
37151;SDS011;23046;50.112;8.952;2023-09-19T00:04:10;2.65;;;0.50;;
37151;SDS011;23046;50.112;8.952;2023-09-19T00:04:22;1.80;;;0.50;;
37151;SDS011;23046;50.112;8.952;2023-09-19T00:04:38;1.83;;;0.60;;
37151;SDS011;23046;50.112;8.952;2023-09-19T00:04:49;0.75;;;0.60;;
37151;SDS011;23046;50.112;8.952;2023-09-19T00:05:00;0.60;;;0.60;;
37151;SDS011;23046;50.112;8.952;2023-09-19T00:05:14;1.80;;;0.70;;
37151;SDS011;23046;50.112;8.952;2023-09-19T00:05:25;1.80;;;0.60;;
37151;SDS011;23046;50.112;8.952;2023-09-19T00:05:38;2.00;;;0.50;;
37151;SDS011;23046;50.112;8.952;2023-09-19T00:05:48;2.25;;;0.50;;
37151;SDS011;23046;50.112;8.952;2023-09-19T00:06:00;3.25;;;0.55;;
37151;SDS011;23046;50.112;8.952;2023-09-19T00:06:10;2.90;;;0.60;;
37151;SDS011;23046;50.112;8.952;2023-09-19T00:06:23;1.70;;;0.63;;
37151;SDS011;23046;50.112;8.952;2023-09-19T00:06:36;0.55;;;0.50;;
37151;SDS011;23046;50.112;8.952;2023-09-19T00:06:47;0.50;;;0.50;;
37151;SDS011;23046;50.112;8.952;2023-09-19T00:06:57;1.70;;;0.60;;
37151;SDS011;23046;50.112;8.952;2023-09-19T00:07:07;2.53;;;0.70;;
37151;SDS011;23046;50.112;8.952;2023-09-19T00:07:19;2.58;;;0.60;;
37151;SDS011;23046;50.112;8.952;2023-09-19T00:07:29;1.27;;;0.50;;
37151;SDS011;23046;50.112;8.952;2023-09-19T00:07:39;0.47;;;0.47;;
37151;SDS011;23046;50.112;8.952;2023-09-19T00:07:51;0.60;;;0.60;;
37151;SDS011;23046;50.112;8.952;2023-09-19T00:08:04;0.77;;;0.75;;
37151;SDS011;23046;50.112;8.952;2023-09-19T00:08:14;1.67;;;0.77;;
37151;SDS011;23046;50.112;8.952;2023-09-19T00:08:25;1.63;;;0.65;;
37151;SDS011;23046;50.112;8.952;2023-09-19T00:08:35;1.67;;;0.50;;
37151;SDS011;23046;50.112;8.952;2023-09-19T00:08:46;1.52;;;0.52;;
37151;SDS011;23046;50.112;8.952;2023-09-19T00:08:57;1.48;;;0.57;;
37151;SDS011;23046;50.112;8.952;2023-09-19T00:09:09;1.05;;;0.55;;
37151;SDS011;23046;50.112;8.952;2023-09-19T00:09:22;0.88;;;0.52;;
37151;SDS011;23046;50.112;8.952;2023-09-19T00:09:36;1.17;;;0.60;;
37151;SDS011;23046;50.112;8.952;2023-09-19T00:09:48;1.85;;;0.70;;
37151;SDS011;23046;50.112;8.952;2023-09-19T00:09:59;2.78;;;0.60;;
37151;SDS011;23046;50.112;8.952;2023-09-19T00:10:10;2.30;;;0.57;;
37151;SDS011;23046;50.112;8.952;2023-09-19T00:10:24;1.67;;;0.70;;
37151;SDS011;23046;50.112;8.952;2023-09-19T00:10:34;0.80;;;0.60;;
37151;SDS011;23046;50.112;8.952;2023-09-19T00:10:45;0.70;;;0.60;;
37151;SDS011;23046;50.112;8.952;2023-09-19T00:10:55;0.50;;;0.50;;
37151;SDS011;23046;50.112;8.952;2023-09-19T00:11:05;0.50;;;0.50;;
37151;SDS011;23046;50.112;8.952;2023-09-19T00:11:15;0.63;;;0.60;;
37151;SDS011;23046;50.112;8.952;2023-09-19T00:11:26;0.73;;;0.60;;
37151;SDS011;23046;50.112;8.952;2023-09-19T00:11:37;0.73;;;0.63;;
37151;SDS011;23046;50.112;8.952;2023-09-19T00:11:49;1.23;;;0.60;;
37151;SDS011;23046;50.112;8.952;2023-09-19T00:11:59;1.17;;;0.55;;
37151;SDS011;23046;50.112;8.952;2023-09-19T00:12:09;0.83;;;0.57;;
37151;SDS011;23046;50.112;8.952;2023-09-19T00:12:20;1.40;;;0.63;;
37151;SDS011;23046;50.112;8.952;2023-09-19T00:12:30;1.35;;;0.70;;
37151;SDS011;23046;50.112;8.952;2023-09-19T00:12:42;1.10;;;0.50;;
37151;SDS011;23046;50.112;8.952;2023-09-19T00:12:53;0.50;;;0.50;;
37151;SDS011;23046;50.112;8.952;2023-09-19T00:13:06;1.45;;;0.70;;
37151;SDS011;23046;50.112;8.952;2023-09-19T00:13:22;2.30;;;0.77;;
37151;SDS011;23046;50.112;8.952;2023-09-19T00:13:34;1.40;;;0.60;;
37151;SDS011;23046;50.112;8.952;2023-09-19T00:13:49;2.22;;;0.60;;
37151;SDS011;23046;50.112;8.952;2023-09-19T00:14:00;2.20;;;0.60;;
37151;SDS011;23046;50.112;8.952;2023-09-19T00:14:10;2.27;;;0.70;;
37151;SDS011;23046;50.112;8.952;2023-09-19T00:14:24;2.33;;;0.70;;
37151;SDS011;23046;50.112;8.952;2023-09-19T00:14:35;4.80;;;0.67;;
37151;SDS011;23046;50.112;8.952;2023-09-19T00:14:48;4.03;;;0.52;;
37151;SDS011;23046;50.112;8.952;2023-09-19T00:14:58;1.00;;;0.50;;
37151;SDS011;23046;50.112;8.952;2023-09-19T00:15:10;0.73;;;0.50;;
37151;SDS011;23046;50.112;8.952;2023-09-19T00:15:22;0.80;;;0.60;;
37151;SDS011;23046;50.112;8.952;2023-09-19T00:15:43;0.93;;;0.60;;
37151;SDS011;23046;50.112;8.952;2023-09-19T00:15:55;0.93;;;0.60;;
37151;SDS011;23046;50.112;8.952;2023-09-19T00:16:11;0.98;;;0.60;;
37151;SDS011;23046;50.112;8.952;2023-09-19T00:16:22;1.27;;;0.50;;
37151;SDS011;23046;50.112;8.952;2023-09-19T00:16:33;1.08;;;0.57;;
37151;SDS011;23046;50.112;8.952;2023-09-19T00:16:43;1.30;;;0.63;;
37151;SDS011;23046;50.112;8.952;2023-09-19T00:16:54;0.70;;;0.53;;
37151;SDS011;23046;50.112;8.952;2023-09-19T00:17:04;0.80;;;0.55;;
37151;SDS011;23046;50.112;8.952;2023-09-19T00:17:18;1.35;;;0.50;;
37151;SDS011;23046;50.112;8.952;2023-09-19T00:17:28;1.40;;;0.60;;
37151;SDS011;23046;50.112;8.952;2023-09-19T00:17:41;1.13;;;0.60;;
37151;SDS011;23046;50.112;8.952;2023-09-19T00:17:53;0.75;;;0.65;;
37151;SDS011;23046;50.112;8.952;2023-09-19T00:18:04;0.90;;;0.65;;
37151;SDS011;23046;50.112;8.952;2023-09-19T00:18:17;0.77;;;0.60;;
37151;SDS011;23046;50.112;8.952;2023-09-19T00:18:28;0.65;;;0.60;;
37151;SDS011;23046;50.112;8.952;2023-09-19T00:18:39;0.93;;;0.63;;
37151;SDS011;23046;50.112;8.952;2023-09-19T00:18:49;1.77;;;0.68;;
37151;SDS011;23046;50.112;8.952;2023-09-19T00:19:00;1.77;;;0.60;;
37151;SDS011;23046;50.112;8.952;2023-09-19T00:19:17;0.75;;;0.57;;
37151;SDS011;23046;50.112;8.952;2023-09-19T00:19:27;2.23;;;0.67;;
37151;SDS011;23046;50.112;8.952;2023-09-19T00:19:37;2.40;;;0.80;;
37151;SDS011;23046;50.112;8.952;2023-09-19T00:19:47;1.85;;;0.70;;
37151;SDS011;23046;50.112;8.952;2023-09-19T00:19:58;0.85;;;0.60;;
37151;SDS011;23046;50.112;8.952;2023-09-19T00:20:09;0.80;;;0.60;;
37151;SDS011;23046;50.112;8.952;2023-09-19T00:20:22;1.13;;;0.60;;
37151;SDS011;23046;50.112;8.952;2023-09-19T00:20:35;0.85;;;0.50;;
37151;SDS011;23046;50.112;8.952;2023-09-19T00:20:45;0.80;;;0.50;;
37151;SDS011;23046;50.112;8.952;2023-09-19T00:20:58;0.80;;;0.57;;
37151;SDS011;23046;50.112;8.952;2023-09-19T00:21:08;0.70;;;0.60;;
37151;SDS011;23046;50.112;8.952;2023-09-19T00:21:20;2.70;;;0.70;;
37151;SDS011;23046;50.112;8.952;2023-09-19T00:21:31;2.50;;;0.70;;
37151;SDS011;23046;50.112;8.952;2023-09-19T00:21:41;2.35;;;0.65;;
37151;SDS011;23046;50.112;8.952;2023-09-19T00:21:51;0.70;;;0.60;;
37151;SDS011;23046;50.112;8.952;2023-09-19T00:22:03;1.55;;;0.65;;
37151;SDS011;23046;50.112;8.952;2023-09-19T00:22:14;1.80;;;0.70;;
37151;SDS011;23046;50.112;8.952;2023-09-19T00:22:25;1.30;;;0.68;;
37151;SDS011;23046;50.112;8.952;2023-09-19T00:22:38;2.27;;;0.53;;
37151;SDS011;23046;50.112;8.952;2023-09-19T00:22:49;3.22;;;0.50;;
37151;SDS011;23046;50.112;8.952;2023-09-19T00:23:03;1.67;;;0.57;;
37151;SDS011;23046;50.112;8.952;2023-09-19T00:23:14;0.93;;;0.60;;
37151;SDS011;23046;50.112;8.952;2023-09-19T00:23:24;1.07;;;0.90;;
37151;SDS011;23046;50.112;8.952;2023-09-19T00:23:35;1.45;;;1.00;;
37151;SDS011;23046;50.112;8.952;2023-09-19T00:23:45;1.43;;;0.93;;
37151;SDS011;23046;50.112;8.952;2023-09-19T00:23:55;1.60;;;0.60;;
37151;SDS011;23046;50.112;8.952;2023-09-19T00:24:05;1.30;;;0.50;;
37151;SDS011;23046;50.112;8.952;2023-09-19T00:24:16;2.15;;;0.60;;
37151;SDS011;23046;50.112;8.952;2023-09-19T00:24:28;1.60;;;0.68;;
37151;SDS011;23046;50.112;8.952;2023-09-19T00:24:38;1.67;;;0.63;;
37151;SDS011;23046;50.112;8.952;2023-09-19T00:24:49;0.70;;;0.52;;
37151;SDS011;23046;50.112;8.952;2023-09-19T00:25:01;0.70;;;0.50;;
37151;SDS011;23046;50.112;8.952;2023-09-19T00:25:11;0.90;;;0.63;;
37151;SDS011;23046;50.112;8.952;2023-09-19T00:25:22;0.90;;;0.60;;
37151;SDS011;23046;50.112;8.952;2023-09-19T00:25:32;0.77;;;0.55;;
37151;SDS011;23046;50.112;8.952;2023-09-19T00:25:42;0.50;;;0.47;;
37151;SDS011;23046;50.112;8.952;2023-09-19T00:25:52;0.60;;;0.57;;
37151;SDS011;23046;50.112;8.952;2023-09-19T00:26:07;0.70;;;0.70;;
37151;SDS011;23046;50.112;8.952;2023-09-19T00:26:17;0.63;;;0.60;;
37151;SDS011;23046;50.112;8.952;2023-09-19T00:26:31;0.60;;;0.60;;
37151;SDS011;23046;50.112;8.952;2023-09-19T00:26:42;0.57;;;0.57;;
37151;SDS011;23046;50.112;8.952;2023-09-19T00:26:52;0.97;;;0.60;;
37151;SDS011;23046;50.112;8.952;2023-09-19T00:27:04;1.60;;;0.70;;
37151;SDS011;23046;50.112;8.952;2023-09-19T00:27:15;1.75;;;0.75;;
37151;SDS011;23046;50.112;8.952;2023-09-19T00:27:25;0.87;;;0.67;;
37151;SDS011;23046;50.112;8.952;2023-09-19T00:27:36;2.80;;;0.70;;
37151;SDS011;23046;50.112;8.952;2023-09-19T00:27:51;3.65;;;0.60;;
37151;SDS011;23046;50.112;8.952;2023-09-19T00:28:01;2.40;;;0.53;;
37151;SDS011;23046;50.112;8.952;2023-09-19T00:28:12;1.83;;;0.68;;
37151;SDS011;23046;50.112;8.952;2023-09-19T00:28:22;0.97;;;0.80;;
37151;SDS011;23046;50.112;8.952;2023-09-19T00:28:33;0.70;;;0.70;;
37151;SDS011;23046;50.112;8.952;2023-09-19T00:28:43;1.63;;;0.63;;
37151;SDS011;23046;50.112;8.952;2023-09-19T00:28:53;3.40;;;0.50;;
37151;SDS011;23046;50.112;8.952;2023-09-19T00:29:04;3.33;;;0.50;;
37151;SDS011;23046;50.112;8.952;2023-09-19T00:29:14;2.20;;;0.52;;
37151;SDS011;23046;50.112;8.952;2023-09-19T00:29:26;0.73;;;0.70;;
37151;SDS011;23046;50.112;8.952;2023-09-19T00:29:39;0.70;;;0.70;;
37151;SDS011;23046;50.112;8.952;2023-09-19T00:29:49;0.60;;;0.60;;
37151;SDS011;23046;50.112;8.952;2023-09-19T00:29:59;0.50;;;0.50;;
37151;SDS011;23046;50.112;8.952;2023-09-19T00:30:10;0.63;;;0.50;;
37151;SDS011;23046;50.112;8.952;2023-09-19T00:30:25;0.82;;;0.60;;
37151;SDS011;23046;50.112;8.952;2023-09-19T00:30:36;0.90;;;0.50;;
37151;SDS011;23046;50.112;8.952;2023-09-19T00:30:48;1.60;;;0.60;;
37151;SDS011;23046;50.112;8.952;2023-09-19T00:31:02;1.42;;;0.60;;
37151;SDS011;23046;50.112;8.952;2023-09-19T00:31:12;1.60;;;0.80;;
37151;SDS011;23046;50.112;8.952;2023-09-19T00:31:22;2.33;;;0.80;;
37151;SDS011;23046;50.112;8.952;2023-09-19T00:31:33;2.90;;;0.80;;
37151;SDS011;23046;50.112;8.952;2023-09-19T00:31:43;2.70;;;0.60;;
37151;SDS011;23046;50.112;8.952;2023-09-19T00:31:53;1.33;;;0.57;;
37151;SDS011;23046;50.112;8.952;2023-09-19T00:32:04;1.47;;;0.67;;
37151;SDS011;23046;50.112;8.952;2023-09-19T00:32:15;1.77;;;0.70;;
37151;SDS011;23046;50.112;8.952;2023-09-19T00:32:25;1.55;;;0.68;;
37151;SDS011;23046;50.112;8.952;2023-09-19T00:32:41;1.80;;;0.70;;
37151;SDS011;23046;50.112;8.952;2023-09-19T00:32:52;1.70;;;0.75;;
37151;SDS011;23046;50.112;8.952;2023-09-19T00:33:04;1.35;;;0.70;;
37151;SDS011;23046;50.112;8.952;2023-09-19T00:33:16;0.73;;;0.60;;
37151;SDS011;23046;50.112;8.952;2023-09-19T00:33:27;0.60;;;0.60;;
37151;SDS011;23046;50.112;8.952;2023-09-19T00:33:39;1.60;;;0.60;;
37151;SDS011;23046;50.112;8.952;2023-09-19T00:33:49;1.80;;;0.60;;
37151;SDS011;23046;50.112;8.952;2023-09-19T00:33:59;1.65;;;0.52;;
37151;SDS011;23046;50.112;8.952;2023-09-19T00:34:17;1.30;;;0.52;;
37151;SDS011;23046;50.112;8.952;2023-09-19T00:34:27;1.60;;;0.70;;
37151;SDS011;23046;50.112;8.952;2023-09-19T00:34:38;1.10;;;0.80;;
37151;SDS011;23046;50.112;8.952;2023-09-19T00:34:48;0.80;;;0.70;;
37151;SDS011;23046;50.112;8.952;2023-09-19T00:34:58;0.90;;;0.57;;
37151;SDS011;23046;50.112;8.952;2023-09-19T00:35:08;0.70;;;0.55;;
37151;SDS011;23046;50.112;8.952;2023-09-19T00:35:22;0.68;;;0.60;;
37151;SDS011;23046;50.112;8.952;2023-09-19T00:35:34;0.60;;;0.60;;
37151;SDS011;23046;50.112;8.952;2023-09-19T00:35:48;0.70;;;0.70;;
37151;SDS011;23046;50.112;8.952;2023-09-19T00:35:58;0.88;;;0.80;;
37151;SDS011;23046;50.112;8.952;2023-09-19T00:36:09;0.98;;;0.70;;
37151;SDS011;23046;50.112;8.952;2023-09-19T00:36:19;0.70;;;0.67;;
37151;SDS011;23046;50.112;8.952;2023-09-19T00:36:30;0.90;;;0.60;;
37151;SDS011;23046;50.112;8.952;2023-09-19T00:36:40;0.70;;;0.60;;
37151;SDS011;23046;50.112;8.952;2023-09-19T00:36:50;2.70;;;0.70;;
37151;SDS011;23046;50.112;8.952;2023-09-19T00:37:03;2.58;;;0.68;;
37151;SDS011;23046;50.112;8.952;2023-09-19T00:37:13;1.80;;;0.67;;
37151;SDS011;23046;50.112;8.952;2023-09-19T00:37:24;0.80;;;0.70;;
37151;SDS011;23046;50.112;8.952;2023-09-19T00:37:34;0.80;;;0.60;;
37151;SDS011;23046;50.112;8.952;2023-09-19T00:37:45;0.82;;;0.60;;
37151;SDS011;23046;50.112;8.952;2023-09-19T00:37:56;0.67;;;0.60;;
37151;SDS011;23046;50.112;8.952;2023-09-19T00:38:06;0.90;;;0.60;;
37151;SDS011;23046;50.112;8.952;2023-09-19T00:38:17;0.82;;;0.60;;
37151;SDS011;23046;50.112;8.952;2023-09-19T00:38:29;0.70;;;0.60;;
37151;SDS011;23046;50.112;8.952;2023-09-19T00:38:39;0.90;;;0.77;;
37151;SDS011;23046;50.112;8.952;2023-09-19T00:38:50;0.90;;;0.75;;
37151;SDS011;23046;50.112;8.952;2023-09-19T00:39:00;0.90;;;0.70;;
37151;SDS011;23046;50.112;8.952;2023-09-19T00:39:10;0.70;;;0.60;;
37151;SDS011;23046;50.112;8.952;2023-09-19T00:39:21;0.83;;;0.50;;
37151;SDS011;23046;50.112;8.952;2023-09-19T00:39:31;1.80;;;0.60;;
37151;SDS011;23046;50.112;8.952;2023-09-19T00:39:42;2.40;;;0.67;;
37151;SDS011;23046;50.112;8.952;2023-09-19T00:39:52;2.08;;;0.73;;
37151;SDS011;23046;50.112;8.952;2023-09-19T00:40:03;0.70;;;0.70;;
37151;SDS011;23046;50.112;8.952;2023-09-19T00:40:15;2.15;;;0.60;;
37151;SDS011;23046;50.112;8.952;2023-09-19T00:40:26;1.90;;;0.50;;
37151;SDS011;23046;50.112;8.952;2023-09-19T00:40:36;1.90;;;0.50;;
37151;SDS011;23046;50.112;8.952;2023-09-19T00:40:47;0.50;;;0.50;;
37151;SDS011;23046;50.112;8.952;2023-09-19T00:40:57;1.30;;;0.45;;
37151;SDS011;23046;50.112;8.952;2023-09-19T00:41:09;1.33;;;0.50;;
37151;SDS011;23046;50.112;8.952;2023-09-19T00:41:19;1.03;;;0.50;;
37151;SDS011;23046;50.112;8.952;2023-09-19T00:41:34;0.60;;;0.60;;
37151;SDS011;23046;50.112;8.952;2023-09-19T00:41:45;0.80;;;0.80;;
37151;SDS011;23046;50.112;8.952;2023-09-19T00:41:56;1.10;;;0.70;;
37151;SDS011;23046;50.112;8.952;2023-09-19T00:42:06;1.00;;;0.70;;
37151;SDS011;23046;50.112;8.952;2023-09-19T00:42:19;0.80;;;0.60;;
37151;SDS011;23046;50.112;8.952;2023-09-19T00:42:31;0.60;;;0.60;;
37151;SDS011;23046;50.112;8.952;2023-09-19T00:42:42;0.80;;;0.80;;
37151;SDS011;23046;50.112;8.952;2023-09-19T00:42:52;0.73;;;0.70;;
37151;SDS011;23046;50.112;8.952;2023-09-19T00:43:06;0.80;;;0.63;;
37151;SDS011;23046;50.112;8.952;2023-09-19T00:43:18;1.10;;;0.60;;
37151;SDS011;23046;50.112;8.952;2023-09-19T00:43:29;0.80;;;0.60;;
37151;SDS011;23046;50.112;8.952;2023-09-19T00:43:39;1.60;;;0.67;;
37151;SDS011;23046;50.112;8.952;2023-09-19T00:43:50;1.60;;;0.60;;
37151;SDS011;23046;50.112;8.952;2023-09-19T00:44:00;2.00;;;0.80;;
37151;SDS011;23046;50.112;8.952;2023-09-19T00:44:11;2.33;;;0.80;;
37151;SDS011;23046;50.112;8.952;2023-09-19T00:44:22;2.30;;;0.77;;
37151;SDS011;23046;50.112;8.952;2023-09-19T00:44:34;3.20;;;0.60;;
37151;SDS011;23046;50.112;8.952;2023-09-19T00:44:47;2.20;;;0.60;;
37151;SDS011;23046;50.112;8.952;2023-09-19T00:44:57;2.17;;;0.60;;
37151;SDS011;23046;50.112;8.952;2023-09-19T00:45:07;0.93;;;0.60;;
37151;SDS011;23046;50.112;8.952;2023-09-19T00:45:20;0.65;;;0.65;;
37151;SDS011;23046;50.112;8.952;2023-09-19T00:45:31;0.93;;;0.63;;
37151;SDS011;23046;50.112;8.952;2023-09-19T00:45:42;1.23;;;0.60;;
37151;SDS011;23046;50.112;8.952;2023-09-19T00:45:53;2.10;;;0.60;;
37151;SDS011;23046;50.112;8.952;2023-09-19T00:46:04;1.70;;;0.60;;
37151;SDS011;23046;50.112;8.952;2023-09-19T00:46:16;1.75;;;0.60;;
37151;SDS011;23046;50.112;8.952;2023-09-19T00:46:27;1.25;;;0.70;;
37151;SDS011;23046;50.112;8.952;2023-09-19T00:46:37;1.20;;;0.70;;
37151;SDS011;23046;50.112;8.952;2023-09-19T00:46:47;0.67;;;0.60;;
37151;SDS011;23046;50.112;8.952;2023-09-19T00:46:59;0.50;;;0.50;;
37151;SDS011;23046;50.112;8.952;2023-09-19T00:47:09;0.60;;;0.50;;
37151;SDS011;23046;50.112;8.952;2023-09-19T00:47:25;2.10;;;0.50;;
37151;SDS011;23046;50.112;8.952;2023-09-19T00:47:35;2.67;;;0.50;;
37151;SDS011;23046;50.112;8.952;2023-09-19T00:47:49;2.70;;;0.70;;
37151;SDS011;23046;50.112;8.952;2023-09-19T00:47:59;1.30;;;0.60;;
37151;SDS011;23046;50.112;8.952;2023-09-19T00:48:13;1.10;;;0.50;;
37151;SDS011;23046;50.112;8.952;2023-09-19T00:48:25;1.20;;;0.55;;
37151;SDS011;23046;50.112;8.952;2023-09-19T00:48:40;1.08;;;0.77;;
37151;SDS011;23046;50.112;8.952;2023-09-19T00:48:51;1.23;;;0.80;;
37151;SDS011;23046;50.112;8.952;2023-09-19T00:49:01;1.10;;;0.73;;
37151;SDS011;23046;50.112;8.952;2023-09-19T00:49:11;0.90;;;0.50;;
37151;SDS011;23046;50.112;8.952;2023-09-19T00:49:22;0.80;;;0.52;;
37151;SDS011;23046;50.112;8.952;2023-09-19T00:49:33;0.97;;;0.60;;
37151;SDS011;23046;50.112;8.952;2023-09-19T00:49:43;0.83;;;0.60;;
37151;SDS011;23046;50.112;8.952;2023-09-19T00:49:54;1.05;;;0.57;;
37151;SDS011;23046;50.112;8.952;2023-09-19T00:50:04;1.47;;;0.50;;
37151;SDS011;23046;50.112;8.952;2023-09-19T00:50:18;2.05;;;0.50;;
37151;SDS011;23046;50.112;8.952;2023-09-19T00:50:29;2.20;;;0.50;;
37151;SDS011;23046;50.112;8.952;2023-09-19T00:50:42;1.85;;;0.40;;
37151;SDS011;23046;50.112;8.952;2023-09-19T00:50:53;1.65;;;0.55;;
37151;SDS011;23046;50.112;8.952;2023-09-19T00:51:04;1.20;;;0.70;;
37151;SDS011;23046;50.112;8.952;2023-09-19T00:51:15;0.98;;;0.70;;
37151;SDS011;23046;50.112;8.952;2023-09-19T00:51:29;2.00;;;0.70;;
37151;SDS011;23046;50.112;8.952;2023-09-19T00:51:39;1.87;;;0.67;;
37151;SDS011;23046;50.112;8.952;2023-09-19T00:51:55;0.68;;;0.50;;
37151;SDS011;23046;50.112;8.952;2023-09-19T00:52:05;1.23;;;0.60;;
37151;SDS011;23046;50.112;8.952;2023-09-19T00:52:16;2.10;;;0.77;;
37151;SDS011;23046;50.112;8.952;2023-09-19T00:52:29;1.63;;;0.70;;
37151;SDS011;23046;50.112;8.952;2023-09-19T00:52:40;1.05;;;0.63;;
37151;SDS011;23046;50.112;8.952;2023-09-19T00:52:53;0.70;;;0.70;;
37151;SDS011;23046;50.112;8.952;2023-09-19T00:53:03;0.98;;;0.82;;
37151;SDS011;23046;50.112;8.952;2023-09-19T00:53:19;0.75;;;0.75;;
37151;SDS011;23046;50.112;8.952;2023-09-19T00:53:30;0.75;;;0.60;;
37151;SDS011;23046;50.112;8.952;2023-09-19T00:53:40;0.93;;;0.60;;
37151;SDS011;23046;50.112;8.952;2023-09-19T00:53:56;1.20;;;0.63;;
37151;SDS011;23046;50.112;8.952;2023-09-19T00:54:08;0.98;;;0.60;;
37151;SDS011;23046;50.112;8.952;2023-09-19T00:54:19;0.90;;;0.60;;
37151;SDS011;23046;50.112;8.952;2023-09-19T00:54:29;1.10;;;0.60;;
37151;SDS011;23046;50.112;8.952;2023-09-19T00:54:39;1.02;;;0.60;;
37151;SDS011;23046;50.112;8.952;2023-09-19T00:54:49;1.50;;;0.40;;
37151;SDS011;23046;50.112;8.952;2023-09-19T00:55:00;1.50;;;0.50;;
37151;SDS011;23046;50.112;8.952;2023-09-19T00:55:12;1.35;;;0.50;;
37151;SDS011;23046;50.112;8.952;2023-09-19T00:55:24;0.68;;;0.68;;
37151;SDS011;23046;50.112;8.952;2023-09-19T00:55:35;0.70;;;0.70;;
37151;SDS011;23046;50.112;8.952;2023-09-19T00:55:47;1.00;;;0.60;;
37151;SDS011;23046;50.112;8.952;2023-09-19T00:55:58;1.50;;;0.53;;
37151;SDS011;23046;50.112;8.952;2023-09-19T00:56:08;1.60;;;0.60;;
37151;SDS011;23046;50.112;8.952;2023-09-19T00:56:19;1.60;;;0.60;;
37151;SDS011;23046;50.112;8.952;2023-09-19T00:56:31;1.40;;;0.50;;
37151;SDS011;23046;50.112;8.952;2023-09-19T00:56:41;1.05;;;0.50;;
37151;SDS011;23046;50.112;8.952;2023-09-19T00:56:52;1.43;;;0.60;;
37151;SDS011;23046;50.112;8.952;2023-09-19T00:57:04;1.00;;;0.57;;
37151;SDS011;23046;50.112;8.952;2023-09-19T00:57:14;0.63;;;0.50;;
37151;SDS011;23046;50.112;8.952;2023-09-19T00:57:25;0.50;;;0.50;;
37151;SDS011;23046;50.112;8.952;2023-09-19T00:57:36;1.30;;;0.70;;
37151;SDS011;23046;50.112;8.952;2023-09-19T00:57:48;2.47;;;0.85;;
37151;SDS011;23046;50.112;8.952;2023-09-19T00:58:00;2.60;;;0.80;;
37151;SDS011;23046;50.112;8.952;2023-09-19T00:58:10;1.77;;;0.73;;
37151;SDS011;23046;50.112;8.952;2023-09-19T00:58:20;1.05;;;0.60;;
37151;SDS011;23046;50.112;8.952;2023-09-19T00:58:31;1.43;;;0.70;;
37151;SDS011;23046;50.112;8.952;2023-09-19T00:58:45;2.70;;;0.80;;
37151;SDS011;23046;50.112;8.952;2023-09-19T00:58:56;2.33;;;0.82;;
37151;SDS011;23046;50.112;8.952;2023-09-19T00:59:06;1.58;;;0.70;;
37151;SDS011;23046;50.112;8.952;2023-09-19T00:59:17;0.60;;;0.50;;
37151;SDS011;23046;50.112;8.952;2023-09-19T00:59:27;0.50;;;0.40;;
37151;SDS011;23046;50.112;8.952;2023-09-19T00:59:38;0.43;;;0.40;;
37151;SDS011;23046;50.112;8.952;2023-09-19T00:59:48;0.50;;;0.50;;
37151;SDS011;23046;50.112;8.952;2023-09-19T01:00:01;0.68;;;0.68;;
37151;SDS011;23046;50.112;8.952;2023-09-19T01:00:15;0.80;;;0.80;;
37151;SDS011;23046;50.112;8.952;2023-09-19T01:00:26;0.90;;;0.70;;
37151;SDS011;23046;50.112;8.952;2023-09-19T01:00:36;0.68;;;0.57;;
37151;SDS011;23046;50.112;8.952;2023-09-19T01:00:48;0.77;;;0.55;;
37151;SDS011;23046;50.112;8.952;2023-09-19T01:00:59;0.90;;;0.60;;
37151;SDS011;23046;50.112;8.952;2023-09-19T01:01:09;1.70;;;0.60;;
37151;SDS011;23046;50.112;8.952;2023-09-19T01:01:21;1.63;;;0.60;;
37151;SDS011;23046;50.112;8.952;2023-09-19T01:01:32;1.15;;;0.63;;
37151;SDS011;23046;50.112;8.952;2023-09-19T01:01:42;0.87;;;0.60;;
37151;SDS011;23046;50.112;8.952;2023-09-19T01:01:56;2.30;;;0.50;;
37151;SDS011;23046;50.112;8.952;2023-09-19T01:02:06;2.23;;;0.50;;
37151;SDS011;23046;50.112;8.952;2023-09-19T01:02:16;2.00;;;0.60;;
37151;SDS011;23046;50.112;8.952;2023-09-19T01:02:26;1.60;;;0.52;;
37151;SDS011;23046;50.112;8.952;2023-09-19T01:02:38;1.83;;;0.60;;
37151;SDS011;23046;50.112;8.952;2023-09-19T01:02:48;0.97;;;0.53;;
37151;SDS011;23046;50.112;8.952;2023-09-19T01:02:58;1.17;;;0.60;;
37151;SDS011;23046;50.112;8.952;2023-09-19T01:03:08;0.88;;;0.55;;
37151;SDS011;23046;50.112;8.952;2023-09-19T01:03:19;0.87;;;0.50;;
37151;SDS011;23046;50.112;8.952;2023-09-19T01:03:30;0.60;;;0.50;;
37151;SDS011;23046;50.112;8.952;2023-09-19T01:03:41;0.68;;;0.50;;
37151;SDS011;23046;50.112;8.952;2023-09-19T01:03:51;0.80;;;0.50;;
37151;SDS011;23046;50.112;8.952;2023-09-19T01:04:02;0.70;;;0.40;;
37151;SDS011;23046;50.112;8.952;2023-09-19T01:04:12;1.63;;;0.50;;
37151;SDS011;23046;50.112;8.952;2023-09-19T01:04:23;2.50;;;0.60;;
37151;SDS011;23046;50.112;8.952;2023-09-19T01:04:35;2.67;;;0.60;;
37151;SDS011;23046;50.112;8.952;2023-09-19T01:04:45;1.40;;;0.50;;
37151;SDS011;23046;50.112;8.952;2023-09-19T01:04:55;0.90;;;0.50;;
37151;SDS011;23046;50.112;8.952;2023-09-19T01:05:06;0.85;;;0.50;;
37151;SDS011;23046;50.112;8.952;2023-09-19T01:05:17;1.08;;;0.57;;
37151;SDS011;23046;50.112;8.952;2023-09-19T01:05:29;1.73;;;0.63;;
37151;SDS011;23046;50.112;8.952;2023-09-19T01:05:40;1.40;;;0.60;;
37151;SDS011;23046;50.112;8.952;2023-09-19T01:05:50;0.60;;;0.60;;
37151;SDS011;23046;50.112;8.952;2023-09-19T01:06:01;0.60;;;0.60;;
37151;SDS011;23046;50.112;8.952;2023-09-19T01:06:12;0.65;;;0.65;;
37151;SDS011;23046;50.112;8.952;2023-09-19T01:06:23;1.50;;;0.68;;
37151;SDS011;23046;50.112;8.952;2023-09-19T01:06:33;1.40;;;0.60;;
37151;SDS011;23046;50.112;8.952;2023-09-19T01:06:44;1.30;;;0.50;;
37151;SDS011;23046;50.112;8.952;2023-09-19T01:06:55;0.50;;;0.50;;
37151;SDS011;23046;50.112;8.952;2023-09-19T01:07:07;0.60;;;0.50;;
37151;SDS011;23046;50.112;8.952;2023-09-19T01:07:18;0.98;;;0.50;;
37151;SDS011;23046;50.112;8.952;2023-09-19T01:07:28;1.70;;;0.50;;
37151;SDS011;23046;50.112;8.952;2023-09-19T01:07:40;1.70;;;0.50;;
37151;SDS011;23046;50.112;8.952;2023-09-19T01:07:50;1.40;;;0.50;;
37151;SDS011;23046;50.112;8.952;2023-09-19T01:08:03;1.55;;;0.55;;
37151;SDS011;23046;50.112;8.952;2023-09-19T01:08:14;1.60;;;0.60;;